aviador You're here:

KPWT Decoded Metar

BREMERTON NTNL in WA, USA
Report Time2018-06-24 08:56:00
UTC Time2018-06-24 09:26:03
Flight Rules vfr VFR
Wind060° at 04 kt
W.Decomp.*RWY 02: 3.8 kt HW 1.4 kt RCW
W.Rank060° ranks 12
Current wind is below 060° avg. (5.0)
Visibility9999 m
Phenomena:N/A
Clouds:N/A
CeilingNone
Temp12°C (ISA -2)
Dew Point12°C (100% RH)
AAT11.2°C
QNH1020 hPa
Density Alt190 ft
Elevation482 ft
Report Wrong Elevation
Raw Report
KPWT 240856Z AUTO 06004KT 10SM CLR 12/12 A3011 RMK AO2 SLP214
T01170117 58007=

Extra information for KPWT:More info

Metar Taf Metar & Taf Last 4 Metars F.Rules Stats Wind Profile Meteogram Temp Stats Airport Information Weather charts Add Link Nearby VenuesMetar ALERT Operation Metar Decoded Social comments

AIRNAV info for KPWT